XNO722 WMKL-WMKP
Flight info
| Callsign | XNO722 |
|---|---|
| Flight time | 0h 20m |
| Altitude | 11000 |
| Route | KAPKO1B KAPKO DCT OMBOK |
| Aircraft | A320/M-SDE3FGHIRWY/LB1 |
Departure
| Time | 2026-04-28 11:46 |
|---|---|
| Airport | Langkawi International Airport (WMKL) |
Arrival
| Time | 2026-04-28 12:06 |
|---|---|
| Airport | Penang International Airport (WMKP) |
| Time | Latitude | Longitude | Altitude | Speed | Heading |
|---|---|---|---|---|---|
| 2026-04-28 10:55 | 6.34126 | 99.73278 | 32 ft | 0 kts | 304° |
| 2026-04-28 11:38 | 6.34118 | 99.73290 | 32 ft | 4 kts | 308° |
| 2026-04-28 11:38 | 6.34100 | 99.73309 | 31 ft | 4 kts | 323° |
| 2026-04-28 11:38 | 6.34077 | 99.73320 | 30 ft | 4 kts | 3° |
| 2026-04-28 11:38 | 6.34063 | 99.73317 | 32 ft | 1 kts | 34° |
| 2026-04-28 11:39 | 6.34062 | 99.73315 | 32 ft | 0 kts | 34° |
| 2026-04-28 11:41 | 6.34107 | 99.73347 | 32 ft | 10 kts | 37° |
| 2026-04-28 11:41 | 6.34148 | 99.73416 | 31 ft | 14 kts | 75° |
| 2026-04-28 11:42 | 6.34187 | 99.73496 | 32 ft | 12 kts | 41° |
| 2026-04-28 11:42 | 6.34255 | 99.73542 | 32 ft | 11 kts | 34° |
| 2026-04-28 11:42 | 6.34314 | 99.73583 | 32 ft | 9 kts | 34° |
| 2026-04-28 11:42 | 6.34366 | 99.73618 | 31 ft | 11 kts | 34° |
| 2026-04-28 11:43 | 6.34435 | 99.73673 | 31 ft | 13 kts | 58° |
| 2026-04-28 11:43 | 6.34446 | 99.73747 | 31 ft | 0 kts | 109° |
| 2026-04-28 11:43 | 6.34430 | 99.73772 | 31 ft | 8 kts | 128° |
| 2026-04-28 11:44 | 6.34396 | 99.73811 | 32 ft | 7 kts | 142° |
| 2026-04-28 11:44 | 6.34360 | 99.73810 | 32 ft | 5 kts | 208° |
| 2026-04-28 11:44 | 6.34342 | 99.73798 | 32 ft | 0 kts | 213° |
| 2026-04-28 11:45 | 6.34333 | 99.73793 | 32 ft | 10 kts | 214° |
| 2026-04-28 11:45 | 6.34045 | 99.73596 | 32 ft | 86 kts | 214° |
| 2026-04-28 11:45 | 6.33378 | 99.73140 | 30 ft | 143 kts | 214° |
| 2026-04-28 11:45 | 6.32434 | 99.72491 | 150 ft | 176 kts | 215° |
| 2026-04-28 11:46 | 6.31522 | 99.71856 | 1177 ft | 147 kts | 213° |
| 2026-04-28 11:46 | 6.30611 | 99.71499 | 1870 ft | 140 kts | 182° |
| 2026-04-28 11:46 | 6.29536 | 99.71717 | 1887 ft | 178 kts | 149° |
| 2026-04-28 11:46 | 6.28664 | 99.72467 | 2763 ft | 157 kts | 131° |
| 2026-04-28 11:47 | 6.27827 | 99.73213 | 3155 ft | 170 kts | 147° |
| 2026-04-28 11:47 | 6.26774 | 99.73902 | 3431 ft | 191 kts | 150° |
| 2026-04-28 11:47 | 6.25576 | 99.74642 | 3714 ft | 214 kts | 150° |
| 2026-04-28 11:47 | 6.24240 | 99.75468 | 4004 ft | 237 kts | 149° |
| 2026-04-28 11:48 | 6.22765 | 99.76386 | 4336 ft | 261 kts | 148° |
| 2026-04-28 11:48 | 6.21172 | 99.77395 | 4916 ft | 276 kts | 148° |
| 2026-04-28 11:48 | 6.19528 | 99.78434 | 5705 ft | 281 kts | 148° |
| 2026-04-28 11:48 | 6.17856 | 99.79497 | 6431 ft | 287 kts | 148° |
| 2026-04-28 11:49 | 6.16149 | 99.80582 | 7143 ft | 292 kts | 147° |
| 2026-04-28 11:49 | 6.14417 | 99.81683 | 7878 ft | 297 kts | 146° |
| 2026-04-28 11:49 | 6.12669 | 99.82796 | 8654 ft | 298 kts | 146° |
| 2026-04-28 11:49 | 6.10913 | 99.83918 | 9456 ft | 299 kts | 145° |
| 2026-04-28 11:50 | 6.09156 | 99.85040 | 10241 ft | 300 kts | 146° |
| 2026-04-28 11:50 | 6.07330 | 99.86207 | 10483 ft | 322 kts | 146° |
| 2026-04-28 11:50 | 6.05371 | 99.87457 | 10619 ft | 345 kts | 146° |
| 2026-04-28 11:50 | 6.03287 | 99.88789 | 10751 ft | 365 kts | 146° |
| 2026-04-28 11:51 | 6.01109 | 99.90178 | 10937 ft | 374 kts | 146° |
| 2026-04-28 11:51 | 5.98874 | 99.91609 | 11001 ft | 391 kts | 146° |
| 2026-04-28 11:51 | 5.96533 | 99.93102 | 11000 ft | 403 kts | 147° |
| 2026-04-28 11:51 | 5.94041 | 99.94427 | 11001 ft | 407 kts | 153° |
| 2026-04-28 11:52 | 5.91481 | 99.95647 | 11000 ft | 407 kts | 153° |
| 2026-04-28 11:52 | 5.88920 | 99.96868 | 10999 ft | 408 kts | 153° |
| 2026-04-28 11:52 | 5.86359 | 99.98091 | 11001 ft | 408 kts | 153° |
| 2026-04-28 11:52 | 5.83790 | 99.99321 | 10991 ft | 409 kts | 153° |
| 2026-04-28 11:53 | 5.81227 | 100.00551 | 11000 ft | 408 kts | 153° |
| 2026-04-28 11:53 | 5.78668 | 100.01782 | 10999 ft | 408 kts | 153° |
| 2026-04-28 11:53 | 5.76109 | 100.03011 | 10991 ft | 408 kts | 153° |
| 2026-04-28 11:53 | 5.73480 | 100.04082 | 10990 ft | 409 kts | 162° |
| 2026-04-28 11:54 | 5.70694 | 100.04668 | 10987 ft | 410 kts | 172° |
| 2026-04-28 11:54 | 5.67855 | 100.04967 | 10849 ft | 410 kts | 173° |
| 2026-04-28 11:54 | 5.65024 | 100.05264 | 10598 ft | 408 kts | 173° |
| 2026-04-28 11:54 | 5.62210 | 100.05559 | 10346 ft | 401 kts | 173° |
| 2026-04-28 11:55 | 5.59490 | 100.05847 | 10097 ft | 386 kts | 173° |
| 2026-04-28 11:55 | 5.56871 | 100.06126 | 9875 ft | 370 kts | 172° |
| 2026-04-28 11:55 | 5.54364 | 100.06395 | 9749 ft | 354 kts | 172° |
| 2026-04-28 11:55 | 5.51965 | 100.06647 | 9623 ft | 339 kts | 172° |
| 2026-04-28 11:56 | 5.49667 | 100.06893 | 9495 ft | 326 kts | 172° |
| 2026-04-28 11:56 | 5.47457 | 100.07127 | 9360 ft | 314 kts | 172° |
| 2026-04-28 11:56 | 5.45319 | 100.07321 | 9240 ft | 304 kts | 177° |
| 2026-04-28 11:56 | 5.43228 | 100.07155 | 9121 ft | 301 kts | 188° |
| 2026-04-28 11:57 | 5.41167 | 100.06792 | 8994 ft | 300 kts | 188° |
| 2026-04-28 11:57 | 5.39109 | 100.06433 | 8869 ft | 300 kts | 188° |
| 2026-04-28 11:57 | 5.37056 | 100.06076 | 8749 ft | 299 kts | 188° |
| 2026-04-28 11:57 | 5.35006 | 100.05721 | 8618 ft | 299 kts | 188° |
| 2026-04-28 11:58 | 5.32953 | 100.05368 | 8245 ft | 299 kts | 188° |
| 2026-04-28 11:58 | 5.30919 | 100.05013 | 7693 ft | 295 kts | 188° |
| 2026-04-28 11:58 | 5.28911 | 100.04662 | 7133 ft | 291 kts | 188° |
| 2026-04-28 11:58 | 5.26923 | 100.04317 | 6599 ft | 289 kts | 188° |
| 2026-04-28 11:59 | 5.24954 | 100.03976 | 6057 ft | 286 kts | 188° |
| 2026-04-28 11:59 | 5.22983 | 100.03636 | 5513 ft | 288 kts | 189° |
| 2026-04-28 11:59 | 5.21009 | 100.03505 | 4973 ft | 283 kts | 171° |
| 2026-04-28 11:59 | 5.19179 | 100.04144 | 4443 ft | 278 kts | 147° |
| 2026-04-28 12:00 | 5.17824 | 100.05441 | 4291 ft | 263 kts | 124° |
| 2026-04-28 12:00 | 5.17036 | 100.07034 | 4224 ft | 248 kts | 112° |
| 2026-04-28 12:00 | 5.16394 | 100.08596 | 4131 ft | 238 kts | 112° |
| 2026-04-28 12:00 | 5.15765 | 100.10121 | 4023 ft | 235 kts | 112° |
| 2026-04-28 12:01 | 5.15237 | 100.11644 | 3797 ft | 230 kts | 100° |
| 2026-04-28 12:01 | 5.15214 | 100.13187 | 3604 ft | 215 kts | 80° |
| 2026-04-28 12:01 | 5.15667 | 100.14575 | 3420 ft | 203 kts | 62° |
| 2026-04-28 12:01 | 5.16462 | 100.15675 | 3187 ft | 188 kts | 45° |
| 2026-04-28 12:02 | 5.17397 | 100.16529 | 2937 ft | 176 kts | 41° |
| 2026-04-28 12:02 | 5.18285 | 100.17333 | 2713 ft | 167 kts | 41° |
| 2026-04-28 12:02 | 5.19137 | 100.18104 | 2498 ft | 163 kts | 41° |
| 2026-04-28 12:02 | 5.19692 | 100.18607 | 2358 ft | 162 kts | 41° |
| 2026-04-28 12:03 | 5.20524 | 100.19360 | 2143 ft | 161 kts | 41° |
| 2026-04-28 12:03 | 5.21351 | 100.20109 | 1933 ft | 160 kts | 41° |
| 2026-04-28 12:03 | 5.22174 | 100.20854 | 1721 ft | 159 kts | 41° |
| 2026-04-28 12:03 | 5.22996 | 100.21598 | 1510 ft | 159 kts | 41° |
| 2026-04-28 12:04 | 5.23810 | 100.22336 | 1318 ft | 158 kts | 41° |
| 2026-04-28 12:04 | 5.24622 | 100.23071 | 1097 ft | 157 kts | 41° |
| 2026-04-28 12:04 | 5.25430 | 100.23803 | 886 ft | 156 kts | 41° |
| 2026-04-28 12:04 | 5.26233 | 100.24530 | 678 ft | 155 kts | 41° |
| 2026-04-28 12:05 | 5.27031 | 100.25254 | 469 ft | 155 kts | 41° |
| 2026-04-28 12:05 | 5.27831 | 100.25977 | 269 ft | 155 kts | 41° |
| 2026-04-28 12:05 | 5.28625 | 100.26699 | 65 ft | 152 kts | 41° |
| 2026-04-28 12:05 | 5.29327 | 100.27329 | 24 ft | 108 kts | 40° |
| 2026-04-28 12:06 | 5.29739 | 100.27700 | 24 ft | 55 kts | 42° |
| 2026-04-28 12:06 | 5.29936 | 100.27821 | 26 ft | 15 kts | 8° |
| 2026-04-28 12:06 | 5.30056 | 100.27844 | 24 ft | 19 kts | 11° |
| 2026-04-28 12:06 | 5.30133 | 100.27820 | 23 ft | 2 kts | 290° |
| 2026-04-28 12:07 | 5.30125 | 100.27807 | 23 ft | 2 kts | 239° |
| 2026-04-28 12:07 | 5.30110 | 100.27787 | 23 ft | 8 kts | 230° |
| 2026-04-28 12:07 | 5.30073 | 100.27751 | 23 ft | 6 kts | 222° |
| 2026-04-28 12:07 | 5.30029 | 100.27711 | 23 ft | 15 kts | 222° |
| 2026-04-28 12:08 | 5.29947 | 100.27635 | 23 ft | 16 kts | 224° |
| 2026-04-28 12:08 | 5.29839 | 100.27536 | 23 ft | 27 kts | 221° |
| 2026-04-28 12:08 | 5.29699 | 100.27409 | 23 ft | 27 kts | 223° |
| 2026-04-28 12:08 | 5.29563 | 100.27284 | 23 ft | 26 kts | 222° |
| 2026-04-28 12:09 | 5.29435 | 100.27167 | 23 ft | 23 kts | 223° |
| 2026-04-28 12:09 | 5.29339 | 100.27057 | 23 ft | 16 kts | 259° |
| 2026-04-28 12:09 | 5.29354 | 100.27026 | 24 ft | 6 kts | 312° |
| 2026-04-28 12:09 | 5.29403 | 100.26919 | 23 ft | 14 kts | 264° |
| 2026-04-28 12:10 | 5.29388 | 100.26887 | 23 ft | 8 kts | 221° |
| 2026-04-28 12:10 | 5.29311 | 100.26832 | 23 ft | 15 kts | 215° |
| 2026-04-28 12:10 | 5.29244 | 100.26777 | 23 ft | 12 kts | 222° |
| 2026-04-28 12:10 | 5.29182 | 100.26720 | 23 ft | 9 kts | 231° |
| 2026-04-28 12:11 | 5.29191 | 100.26685 | 24 ft | 3 kts | 307° |
| 2026-04-28 12:11 | 5.29210 | 100.26662 | 23 ft | 7 kts | 311° |
| 2026-04-28 12:11 | 5.29224 | 100.26646 | 23 ft | 0 kts | 311° |
| 2026-04-28 12:14 | 5.24429 | 100.22896 | 1077 ft | 159 kts | 41° |
| 2026-04-28 12:15 | 5.27506 | 100.25683 | 361 ft | 155 kts | 41° |
| 2026-04-28 12:15 | 5.28105 | 100.26226 | 31 ft | 157 kts | 41° |
| 2026-04-28 12:15 | 5.28506 | 100.26569 | 75 ft | 132 kts | 38° |